Time;durP1;ratioP1;P1;durP2;ratioP2;P2;SDS_P1;SDS_P2;PMS_P1;PMS_P2;Temp;Humidity;BMP_temperature;BMP_pressure;BME280_temperature;BME280_humidity;BME280_pressure;Samples;Min_cycle;Max_cycle;Signal;HPM_P1;HPM_P2
2022/08/29 00:00:53;;;;;;;4.50;2.15;;;;;;;;;;4979596;28;20049;-74
2022/08/29 00:03:19;;;;;;;6.57;2.10;;;;;;;;;;4962451;28;20549;-73
2022/08/29 00:05:44;;;;;;;6.15;1.90;;;;;;;;;;4979092;28;20188;-74
2022/08/29 00:08:09;;;;;;;5.10;2.10;;;;;;;;;;4980583;28;20049;-74
2022/08/29 00:10:36;;;;;;;5.07;1.92;;;;;;;;;;4978227;28;20513;-74
2022/08/29 00:13:02;;;;;;;4.05;2.17;;;;;;;;;;4979634;28;20069;-73
2022/08/29 00:15:28;;;;;;;6.32;2.10;;;;;;;;;;4976942;28;20202;-74
2022/08/29 00:17:56;;;;;;;5.22;1.98;;;;;;;;;;4962046;28;20057;-74
2022/08/29 00:20:25;;;;;;;4.18;1.98;;;;;;;;;;4977319;28;20591;-74
2022/08/29 00:22:51;;;;;;;3.47;1.88;;;;;;;;;;4960912;28;20034;-75
2022/08/29 00:25:19;;;;;;;5.60;2.30;;;;;;;;;;4964732;28;20042;-74
2022/08/29 00:27:44;;;;;;;3.97;1.90;;;;;;;;;;4976822;28;20805;-76
2022/08/29 00:30:10;;;;;;;3.30;1.95;;;;;;;;;;4961863;28;20034;-76
2022/08/29 00:32:35;;;;;;;5.43;2.03;;;;;;;;;;4978483;28;20551;-75
2022/08/29 00:35:02;;;;;;;4.45;2.17;;;;;;;;;;4979235;28;20033;-75
2022/08/29 00:37:30;;;;;;;5.47;2.30;;;;;;;;;;4976329;28;20029;-74
2022/08/29 00:39:57;;;;;;;4.72;2.20;;;;;;;;;;4960984;28;20437;-74
2022/08/29 00:42:23;;;;;;;7.57;2.50;;;;;;;;;;4979115;28;20655;-75
2022/08/29 00:44:48;;;;;;;4.00;2.20;;;;;;;;;;4977273;28;20314;-75
2022/08/29 00:47:15;;;;;;;7.28;2.60;;;;;;;;;;4968836;28;20045;-75
2022/08/29 00:49:43;;;;;;;9.00;2.42;;;;;;;;;;4976585;28;20670;-75
2022/08/29 00:52:31;;;;;;;5.20;2.40;;;;;;;;;;4977965;28;20038;-76
2022/08/29 00:54:58;;;;;;;4.85;2.33;;;;;;;;;;4977418;28;20048;-75
2022/08/29 00:57:27;;;;;;;5.85;2.60;;;;;;;;;;4963130;28;20036;-75
2022/08/29 00:59:57;;;;;;;7.53;2.38;;;;;;;;;;4977528;28;20426;-75
2022/08/29 01:02:22;;;;;;;8.07;2.67;;;;;;;;;;4977693;28;20730;-75
2022/08/29 01:04:48;;;;;;;5.22;2.60;;;;;;;;;;4976932;28;20040;-76
2022/08/29 01:07:13;;;;;;;6.43;2.70;;;;;;;;;;4977407;28;20632;-75
2022/08/29 01:09:42;;;;;;;4.40;2.58;;;;;;;;;;4944268;28;20264;-75
2022/08/29 01:12:16;;;;;;;5.82;3.03;;;;;;;;;;4978686;28;20033;-76
2022/08/29 01:14:46;;;;;;;5.43;2.97;;;;;;;;;;4976420;28;20815;-75
2022/08/29 01:17:14;;;;;;;5.85;2.95;;;;;;;;;;4978836;28;20181;-75
2022/08/29 01:19:48;;;;;;;6.63;2.53;;;;;;;;;;4978250;28;20487;-75
2022/08/29 01:22:16;;;;;;;5.43;2.83;;;;;;;;;;4978362;28;20750;-76
2022/08/29 01:24:50;;;;;;;7.88;2.88;;;;;;;;;;4976730;28;20034;-74
2022/08/29 01:27:20;;;;;;;5.43;2.67;;;;;;;;;;4977097;28;20124;-75
2022/08/29 01:29:46;;;;;;;5.82;2.63;;;;;;;;;;4975116;28;20038;-74
2022/08/29 01:32:12;;;;;;;4.78;2.72;;;;;;;;;;4963108;28;20038;-75
2022/08/29 01:34:37;;;;;;;5.40;3.03;;;;;;;;;;4976712;28;20045;-74
2022/08/29 01:37:06;;;;;;;6.90;2.95;;;;;;;;;;4979123;28;20045;-75
2022/08/29 01:39:33;;;;;;;6.10;2.80;;;;;;;;;;4976936;28;20037;-75
2022/08/29 01:41:59;;;;;;;4.38;2.58;;;;;;;;;;4977348;28;20438;-73
2022/08/29 01:44:25;;;;;;;6.25;2.80;;;;;;;;;;4979640;28;20577;-76
2022/08/29 01:46:53;;;;;;;5.28;2.75;;;;;;;;;;4977139;28;20065;-76
2022/08/29 01:49:20;;;;;;;7.25;3.30;;;;;;;;;;4978148;28;20751;-74
2022/08/29 01:51:46;;;;;;;5.63;2.88;;;;;;;;;;4977452;28;20854;-75
2022/08/29 01:54:12;;;;;;;8.85;3.15;;;;;;;;;;4943994;28;20042;-75
2022/08/29 01:56:41;;;;;;;7.05;3.17;;;;;;;;;;4978458;28;20037;-76
2022/08/29 01:59:09;;;;;;;7.28;2.65;;;;;;;;;;4975396;28;20459;-75
2022/08/29 02:01:37;;;;;;;6.70;2.90;;;;;;;;;;4977205;28;20459;-75
2022/08/29 02:04:02;;;;;;;7.38;3.10;;;;;;;;;;4978886;28;20305;-75
2022/08/29 02:06:28;;;;;;;6.95;3.00;;;;;;;;;;4980104;28;21795;-74
2022/08/29 02:08:56;;;;;;;6.28;3.15;;;;;;;;;;4978895;28;20076;-75
2022/08/29 02:11:23;;;;;;;11.25;3.33;;;;;;;;;;4979874;28;20935;-75
2022/08/29 02:13:50;;;;;;;5.25;3.00;;;;;;;;;;4979766;28;20055;-74
2022/08/29 02:16:17;;;;;;;7.20;2.80;;;;;;;;;;4979533;28;20033;-74
2022/08/29 02:18:43;;;;;;;9.75;3.10;;;;;;;;;;4962589;28;20195;-75
2022/08/29 02:21:09;;;;;;;8.90;3.25;;;;;;;;;;4979550;28;20676;-75
2022/08/29 02:23:36;;;;;;;9.80;3.17;;;;;;;;;;4980045;28;20068;-75
2022/08/29 02:26:01;;;;;;;9.15;3.10;;;;;;;;;;4980025;28;20403;-75
2022/08/29 02:28:26;;;;;;;8.02;2.90;;;;;;;;;;4981399;28;20053;-74
2022/08/29 02:30:52;;;;;;;11.75;3.53;;;;;;;;;;4980795;28;20141;-75
2022/08/29 02:33:19;;;;;;;7.60;3.30;;;;;;;;;;4979857;28;20754;-75
2022/08/29 02:35:44;;;;;;;6.35;3.10;;;;;;;;;;4980115;28;20173;-75
2022/08/29 02:38:10;;;;;;;7.93;2.97;;;;;;;;;;4977426;28;20144;-75
2022/08/29 02:40:36;;;;;;;7.80;3.25;;;;;;;;;;4980196;28;20041;-75
2022/08/29 02:43:02;;;;;;;7.45;2.88;;;;;;;;;;4980156;28;20152;-75
2022/08/29 02:45:28;;;;;;;8.13;3.10;;;;;;;;;;4977238;28;20056;-75
2022/08/29 02:47:55;;;;;;;6.15;3.00;;;;;;;;;;4959095;28;20136;-74
2022/08/29 02:50:21;;;;;;;7.20;3.33;;;;;;;;;;4961542;28;20197;-76
2022/08/29 02:52:48;;;;;;;8.07;3.33;;;;;;;;;;4980624;28;20290;-76
2022/08/29 02:55:15;;;;;;;5.18;2.90;;;;;;;;;;4977840;28;20037;-75
2022/08/29 02:57:41;;;;;;;6.55;3.08;;;;;;;;;;4978288;28;20376;-75
2022/08/29 03:00:08;;;;;;;8.73;3.08;;;;;;;;;;4961966;28;20040;-75
2022/08/29 03:02:34;;;;;;;6.88;2.80;;;;;;;;;;4965686;28;20037;-75
2022/08/29 03:04:59;;;;;;;8.88;3.10;;;;;;;;;;4979033;28;20231;-73
2022/08/29 03:07:24;;;;;;;6.78;3.30;;;;;;;;;;4978511;28;20055;-74
2022/08/29 03:09:52;;;;;;;8.02;3.00;;;;;;;;;;4978006;28;20040;-75
2022/08/29 03:12:17;;;;;;;7.75;3.30;;;;;;;;;;4978387;28;20041;-75
2022/08/29 03:14:43;;;;;;;7.43;3.38;;;;;;;;;;4977211;28;20318;-75
2022/08/29 03:17:10;;;;;;;8.18;3.58;;;;;;;;;;4964878;28;20521;-75
2022/08/29 03:19:36;;;;;;;8.02;3.10;;;;;;;;;;4953054;28;20034;-75
2022/08/29 03:22:02;;;;;;;8.52;3.33;;;;;;;;;;4979083;28;20037;-75
2022/08/29 03:24:27;;;;;;;8.15;2.90;;;;;;;;;;4976938;28;20628;-75
2022/08/29 03:26:52;;;;;;;6.10;3.25;;;;;;;;;;4979891;28;20155;-75
2022/08/29 03:29:18;;;;;;;6.93;3.20;;;;;;;;;;4977075;28;20045;-74
2022/08/29 03:31:43;;;;;;;7.13;3.42;;;;;;;;;;4963090;28;20037;-75
2022/08/29 03:34:08;;;;;;;8.65;3.50;;;;;;;;;;4977697;28;20483;-75
2022/08/29 03:36:36;;;;;;;6.32;2.65;;;;;;;;;;4976278;28;20044;-75
2022/08/29 03:39:03;;;;;;;9.27;3.40;;;;;;;;;;4978313;28;20037;-74
2022/08/29 03:41:31;;;;;;;9.52;3.20;;;;;;;;;;4978781;28;20181;-75
2022/08/29 03:44:00;;;;;;;8.48;3.65;;;;;;;;;;4977796;28;20135;-75
2022/08/29 03:46:25;;;;;;;9.65;3.38;;;;;;;;;;4978271;28;20076;-74
2022/08/29 03:48:51;;;;;;;6.88;3.15;;;;;;;;;;4976833;28;21142;-75
2022/08/29 03:51:17;;;;;;;7.00;3.08;;;;;;;;;;4976455;28;20186;-75
2022/08/29 03:53:42;;;;;;;6.88;2.88;;;;;;;;;;4976275;28;20530;-76
2022/08/29 03:56:08;;;;;;;7.28;3.10;;;;;;;;;;4979101;28;20033;-75
2022/08/29 03:58:38;;;;;;;7.57;3.17;;;;;;;;;;4979582;28;20533;-75
2022/08/29 04:01:03;;;;;;;5.85;2.83;;;;;;;;;;4977095;28;20038;-76
2022/08/29 04:03:31;;;;;;;9.40;3.50;;;;;;;;;;4979277;28;20485;-75
2022/08/29 04:05:57;;;;;;;6.88;2.95;;;;;;;;;;4978193;28;20060;-76
2022/08/29 04:08:22;;;;;;;6.90;3.28;;;;;;;;;;4976692;28;20903;-76
2022/08/29 04:10:48;;;;;;;5.85;3.08;;;;;;;;;;4976727;28;20573;-75
2022/08/29 04:13:14;;;;;;;6.85;3.30;;;;;;;;;;4964277;28;20191;-75
2022/08/29 04:15:40;;;;;;;6.97;3.42;;;;;;;;;;4977415;28;20053;-76
2022/08/29 04:18:06;;;;;;;7.75;3.10;;;;;;;;;;4976855;28;20491;-75
2022/08/29 04:20:33;;;;;;;6.78;3.35;;;;;;;;;;4976479;28;20361;-76
2022/08/29 04:22:59;;;;;;;5.55;3.00;;;;;;;;;;4978089;28;20061;-76
2022/08/29 04:25:25;;;;;;;5.97;3.22;;;;;;;;;;4960267;28;20118;-75
2022/08/29 04:27:52;;;;;;;7.50;3.20;;;;;;;;;;4954514;28;22633;-76
2022/08/29 04:30:19;;;;;;;10.43;3.70;;;;;;;;;;4976065;28;20033;-75
2022/08/29 04:32:47;;;;;;;8.75;3.30;;;;;;;;;;4977227;28;20135;-75
2022/08/29 04:35:13;;;;;;;5.55;3.03;;;;;;;;;;4975778;28;20043;-76
2022/08/29 04:37:39;;;;;;;7.60;3.10;;;;;;;;;;4961652;28;20044;-75
2022/08/29 04:40:05;;;;;;;7.47;3.00;;;;;;;;;;4975207;28;20128;-75
2022/08/29 04:42:30;;;;;;;7.60;3.15;;;;;;;;;;4976399;28;20295;-75
2022/08/29 04:44:56;;;;;;;8.65;3.22;;;;;;;;;;4963255;28;20217;-75
2022/08/29 04:47:21;;;;;;;6.95;3.45;;;;;;;;;;4962321;28;20370;-75
2022/08/29 04:49:48;;;;;;;8.57;3.15;;;;;;;;;;4965260;28;20241;-75
2022/08/29 04:52:13;;;;;;;10.07;3.40;;;;;;;;;;4978834;28;20138;-75
2022/08/29 04:54:39;;;;;;;7.70;3.08;;;;;;;;;;4977689;28;20060;-75
2022/08/29 04:57:05;;;;;;;6.70;2.92;;;;;;;;;;4981170;28;21684;-75
2022/08/29 04:59:30;;;;;;;5.55;2.85;;;;;;;;;;4980782;28;20038;-75
2022/08/29 05:01:58;;;;;;;10.55;3.00;;;;;;;;;;4963375;28;21433;-75
2022/08/29 05:04:26;;;;;;;6.13;2.97;;;;;;;;;;4977779;28;20042;-75
2022/08/29 05:06:54;;;;;;;6.65;3.00;;;;;;;;;;4968162;28;20574;-76
2022/08/29 05:09:19;;;;;;;6.05;2.92;;;;;;;;;;4953942;28;20068;-74
2022/08/29 05:11:44;;;;;;;5.85;3.13;;;;;;;;;;4980936;28;20495;-75
2022/08/29 05:14:10;;;;;;;5.95;3.25;;;;;;;;;;4977147;28;20062;-75
2022/08/29 05:16:36;;;;;;;10.10;3.40;;;;;;;;;;4974408;28;20037;-75
2022/08/29 05:19:02;;;;;;;5.80;2.90;;;;;;;;;;4974669;28;20026;-75
2022/08/29 05:21:30;;;;;;;6.47;3.20;;;;;;;;;;4954589;28;20385;-75
2022/08/29 05:23:56;;;;;;;7.47;3.53;;;;;;;;;;4977451;28;20041;-75
2022/08/29 05:26:21;;;;;;;9.90;3.53;;;;;;;;;;4978664;28;20502;-75
2022/08/29 05:28:47;;;;;;;5.47;3.08;;;;;;;;;;4978282;28;20053;-75
2022/08/29 05:31:18;;;;;;;7.90;3.40;;;;;;;;;;4977269;28;20076;-75
2022/08/29 05:33:44;;;;;;;6.27;3.50;;;;;;;;;;4977247;28;20534;-75
2022/08/29 05:36:09;;;;;;;7.68;3.05;;;;;;;;;;4976476;28;20029;-75
2022/08/29 05:38:35;;;;;;;8.48;3.20;;;;;;;;;;4976481;28;20364;-75
2022/08/29 05:41:00;;;;;;;17.77;3.90;;;;;;;;;;4979502;28;20226;-75
2022/08/29 05:43:25;;;;;;;20.17;4.60;;;;;;;;;;4981425;28;20626;-75
2022/08/29 05:45:58;;;;;;;16.92;3.80;;;;;;;;;;4981713;28;20603;-74
2022/08/29 05:48:26;;;;;;;15.68;3.63;;;;;;;;;;4979186;28;20044;-74
2022/08/29 05:50:51;;;;;;;8.20;3.40;;;;;;;;;;4980263;28;20406;-74
2022/08/29 05:53:18;;;;;;;7.60;3.00;;;;;;;;;;4982616;28;20321;-74
2022/08/29 05:55:43;;;;;;;8.20;2.90;;;;;;;;;;4980568;28;20641;-74
2022/08/29 05:58:09;;;;;;;6.32;2.83;;;;;;;;;;4981883;28;20282;-73
2022/08/29 06:00:40;;;;;;;9.20;2.97;;;;;;;;;;4980877;28;20040;-72
2022/08/29 06:03:06;;;;;;;5.60;2.65;;;;;;;;;;4964744;28;20293;-74
2022/08/29 06:05:31;;;;;;;6.03;2.22;;;;;;;;;;4978320;28;20526;-70
2022/08/29 06:07:56;;;;;;;7.10;2.60;;;;;;;;;;4960279;28;20045;-70
2022/08/29 06:10:24;;;;;;;8.35;2.78;;;;;;;;;;4963515;28;20063;-70
2022/08/29 06:12:50;;;;;;;6.70;2.70;;;;;;;;;;4973537;28;20636;-72
2022/08/29 06:15:15;;;;;;;8.13;3.10;;;;;;;;;;4959373;28;20279;-70
2022/08/29 06:17:43;;;;;;;5.78;2.50;;;;;;;;;;4977626;28;20041;-70
2022/08/29 06:20:09;;;;;;;6.93;2.80;;;;;;;;;;4958364;28;20624;-70
2022/08/29 06:22:35;;;;;;;7.25;2.78;;;;;;;;;;4978248;28;20042;-71
2022/08/29 06:25:01;;;;;;;7.72;2.50;;;;;;;;;;4976652;28;20499;-71
2022/08/29 06:27:27;;;;;;;8.57;3.05;;;;;;;;;;4978401;28;20033;-71
2022/08/29 06:29:52;;;;;;;6.75;2.65;;;;;;;;;;4975801;28;20439;-72
2022/08/29 06:32:20;;;;;;;6.93;2.55;;;;;;;;;;4978215;28;20034;-71
2022/08/29 06:34:45;;;;;;;8.95;2.90;;;;;;;;;;4975776;28;20037;-71
2022/08/29 06:37:10;;;;;;;6.25;2.60;;;;;;;;;;4976447;28;20592;-72
2022/08/29 06:39:35;;;;;;;5.05;2.30;;;;;;;;;;4977383;28;20258;-72
2022/08/29 06:42:01;;;;;;;6.07;2.55;;;;;;;;;;4977509;28;20030;-72
2022/08/29 06:44:29;;;;;;;6.65;2.60;;;;;;;;;;4959474;28;20199;-72
2022/08/29 06:46:55;;;;;;;7.53;2.55;;;;;;;;;;4976773;28;20033;-71
2022/08/29 06:49:23;;;;;;;9.35;3.00;;;;;;;;;;4958737;28;20069;-70
2022/08/29 06:51:50;;;;;;;6.90;2.83;;;;;;;;;;4977796;28;20136;-71
2022/08/29 06:54:16;;;;;;;8.93;2.67;;;;;;;;;;4978170;28;20335;-71
2022/08/29 06:56:42;;;;;;;6.55;2.67;;;;;;;;;;4976674;28;20085;-71
2022/08/29 06:59:08;;;;;;;7.30;2.78;;;;;;;;;;4979360;28;20042;-71
2022/08/29 07:01:33;;;;;;;7.70;3.00;;;;;;;;;;4976391;28;20060;-71
2022/08/29 07:03:59;;;;;;;5.65;2.55;;;;;;;;;;4977817;28;20573;-70
2022/08/29 07:06:25;;;;;;;6.38;2.88;;;;;;;;;;4975015;28;20069;-70
2022/08/29 07:08:50;;;;;;;6.53;2.60;;;;;;;;;;4976505;28;20060;-71
2022/08/29 07:11:16;;;;;;;7.10;2.70;;;;;;;;;;4976042;28;20449;-72
2022/08/29 07:13:44;;;;;;;6.13;2.38;;;;;;;;;;4978090;28;20175;-70
2022/08/29 07:16:09;;;;;;;6.00;2.83;;;;;;;;;;4976790;28;20037;-71
2022/08/29 07:18:35;;;;;;;6.00;2.75;;;;;;;;;;4976478;28;20218;-71
2022/08/29 07:21:04;;;;;;;6.93;2.70;;;;;;;;;;4976213;28;20056;-71
2022/08/29 07:23:32;;;;;;;9.13;2.45;;;;;;;;;;4977047;28;20639;-71
2022/08/29 07:26:08;;;;;;;7.15;2.22;;;;;;;;;;4977249;28;20029;-72
2022/08/29 07:28:34;;;;;;;6.78;2.92;;;;;;;;;;4975618;28;21887;-71
2022/08/29 07:31:00;;;;;;;6.97;2.50;;;;;;;;;;4975530;28;20422;-72
2022/08/29 07:33:25;;;;;;;7.07;2.28;;;;;;;;;;4974003;28;20042;-72
2022/08/29 07:35:53;;;;;;;6.93;2.95;;;;;;;;;;4962126;28;20065;-70
2022/08/29 07:38:19;;;;;;;6.47;2.70;;;;;;;;;;4975758;28;20417;-69
2022/08/29 07:40:44;;;;;;;4.82;2.30;;;;;;;;;;4958149;28;20034;-69
2022/08/29 07:43:09;;;;;;;5.75;2.33;;;;;;;;;;4961211;28;20044;-69
2022/08/29 07:45:36;;;;;;;7.20;2.33;;;;;;;;;;4975601;28;20837;-68
2022/08/29 07:48:02;;;;;;;5.53;2.10;;;;;;;;;;4964072;28;20297;-68
2022/08/29 07:50:28;;;;;;;6.00;2.17;;;;;;;;;;4981098;28;20042;-71
2022/08/29 07:52:54;;;;;;;8.77;2.80;;;;;;;;;;4986075;28;20366;-72
2022/08/29 07:55:20;;;;;;;7.45;2.17;;;;;;;;;;4949397;28;20398;-69
2022/08/29 07:57:47;;;;;;;8.68;2.80;;;;;;;;;;4963353;28;20461;-67
2022/08/29 08:00:12;;;;;;;7.63;2.72;;;;;;;;;;4961309;28;20721;-70
2022/08/29 08:02:38;;;;;;;7.40;2.47;;;;;;;;;;4973306;28;20041;-68
2022/08/29 08:05:03;;;;;;;6.95;2.30;;;;;;;;;;4974486;28;20529;-68
2022/08/29 08:07:30;;;;;;;7.00;2.42;;;;;;;;;;4976302;28;20025;-71
2022/08/29 08:09:56;;;;;;;7.43;2.28;;;;;;;;;;4940596;28;20030;-71
2022/08/29 08:12:24;;;;;;;5.05;2.10;;;;;;;;;;4985063;28;20301;-71
2022/08/29 08:14:49;;;;;;;8.23;2.60;;;;;;;;;;4968094;28;20500;-71
2022/08/29 08:17:14;;;;;;;5.70;2.25;;;;;;;;;;4968736;28;20224;-71
2022/08/29 08:19:40;;;;;;;5.97;2.50;;;;;;;;;;4966943;28;20029;-72
2022/08/29 08:22:05;;;;;;;7.82;2.38;;;;;;;;;;4982501;28;20034;-71
2022/08/29 08:24:31;;;;;;;6.20;2.05;;;;;;;;;;4966160;28;20720;-70
2022/08/29 08:26:56;;;;;;;4.85;2.22;;;;;;;;;;4984901;28;20090;-71
2022/08/29 08:29:22;;;;;;;4.63;2.10;;;;;;;;;;4983094;28;20057;-72
2022/08/29 08:31:48;;;;;;;7.03;2.17;;;;;;;;;;4983995;28;20450;-72
2022/08/29 08:34:15;;;;;;;6.68;2.22;;;;;;;;;;4981887;28;20149;-74
2022/08/29 08:36:43;;;;;;;7.95;1.80;;;;;;;;;;4980545;28;20354;-72
2022/08/29 08:39:09;;;;;;;6.18;1.90;;;;;;;;;;4966321;28;20033;-73
2022/08/29 08:41:56;;;;;;;7.30;1.75;;;;;;;;;;4979141;28;22305;-73
2022/08/29 08:44:21;;;;;;;5.68;2.13;;;;;;;;;;4962791;28;20526;-73
2022/08/29 08:46:50;;;;;;;5.35;1.77;;;;;;;;;;4961614;28;20493;-72
2022/08/29 08:49:15;;;;;;;5.65;2.08;;;;;;;;;;4982971;28;20095;-71
2022/08/29 08:51:45;;;;;;;6.75;2.00;;;;;;;;;;4982641;28;20462;-71
2022/08/29 08:54:14;;;;;;;5.25;2.20;;;;;;;;;;4981217;28;20037;-71
2022/08/29 08:56:42;;;;;;;7.68;1.70;;;;;;;;;;4979353;28;20034;-71
2022/08/29 08:59:07;;;;;;;5.57;2.00;;;;;;;;;;4981404;28;20041;-72
2022/08/29 09:01:38;;;;;;;5.13;1.98;;;;;;;;;;4975935;28;20041;-72
2022/08/29 09:04:07;;;;;;;6.10;1.73;;;;;;;;;;4975018;28;21756;-72
2022/08/29 09:06:52;;;;;;;5.93;2.13;;;;;;;;;;4974144;28;20044;-72
2022/08/29 09:09:26;;;;;;;7.70;2.17;;;;;;;;;;4975913;28;20052;-71
2022/08/29 09:11:57;;;;;;;6.22;2.08;;;;;;;;;;4974679;28;20033;-71
2022/08/29 09:14:26;;;;;;;6.55;1.67;;;;;;;;;;4961571;28;20952;-72
2022/08/29 09:16:55;;;;;;;7.53;2.38;;;;;;;;;;4977689;28;20214;-71
2022/08/29 09:19:23;;;;;;;;;;;;;;;;;;4976866;28;20037;-72
2022/08/29 09:21:58;;;;;;;5.72;2.35;;;;;;;;;;4980400;28;19948;-72
2022/08/29 09:24:42;;;;;;;9.15;2.28;;;;;;;;;;4977897;28;20118;-71
2022/08/29 09:27:15;;;;;;;9.43;2.15;;;;;;;;;;4964765;28;20217;-72
2022/08/29 09:29:41;;;;;;;4.45;2.00;;;;;;;;;;4981148;28;20049;-72
2022/08/29 09:32:09;;;;;;;6.85;2.03;;;;;;;;;;4979458;28;20406;-72
2022/08/29 09:34:40;;;;;;;6.30;2.30;;;;;;;;;;4979962;28;20041;-73
2022/08/29 09:37:30;;;;;;;5.67;2.30;;;;;;;;;;4978311;28;20644;-71
2022/08/29 09:40:06;;;;;;;6.20;2.38;;;;;;;;;;4981889;28;20283;-71
2022/08/29 09:42:35;;;;;;;5.70;1.98;;;;;;;;;;4979093;28;20152;-72
2022/08/29 09:45:14;;;;;;;6.25;2.30;;;;;;;;;;4980220;28;20037;-74
2022/08/29 09:47:39;;;;;;;6.68;2.25;;;;;;;;;;4981020;28;20037;-71
2022/08/29 09:50:19;;;;;;;7.05;2.45;;;;;;;;;;4983508;28;20045;-71
2022/08/29 09:52:59;;;;;;;4.65;2.08;;;;;;;;;;4983174;28;20048;-73
2022/08/29 09:55:27;;;;;;;4.38;1.98;;;;;;;;;;4984144;28;20584;-71
2022/08/29 09:57:55;;;;;;;7.40;2.10;;;;;;;;;;4985332;28;22299;-71
2022/08/29 10:00:25;;;;;;;4.53;2.08;;;;;;;;;;4982284;28;20033;-72
2022/08/29 10:02:55;;;;;;;4.35;1.95;;;;;;;;;;4981418;28;20463;-71
2022/08/29 10:05:32;;;;;;;4.35;1.90;;;;;;;;;;4979620;28;20310;-72
2022/08/29 10:07:58;;;;;;;7.63;2.10;;;;;;;;;;4963307;28;20041;-73
2022/08/29 10:10:25;;;;;;;4.85;1.90;;;;;;;;;;4980519;28;20048;-72
2022/08/29 10:12:56;;;;;;;5.38;2.00;;;;;;;;;;4980605;28;20362;-71
2022/08/29 10:15:26;;;;;;;8.05;1.90;;;;;;;;;;4978637;28;20609;-72
2022/08/29 10:18:26;;;;;;;5.00;1.60;;;;;;;;;;4978282;28;20270;-72
2022/08/29 10:21:12;;;;;;;8.05;1.90;;;;;;;;;;4957937;28;20038;-71
2022/08/29 10:23:58;;;;;;;6.85;1.85;;;;;;;;;;4981932;28;20037;-71
2022/08/29 10:26:26;;;;;;;5.40;2.00;;;;;;;;;;4982651;28;20138;-72
2022/08/29 10:29:10;;;;;;;4.47;1.67;;;;;;;;;;4964061;28;20573;-72
2022/08/29 10:31:41;;;;;;;9.35;2.13;;;;;;;;;;4972629;28;20111;-70
2022/08/29 10:34:28;;;;;;;5.80;1.92;;;;;;;;;;4983907;28;20033;-70
2022/08/29 10:36:58;;;;;;;4.75;2.03;;;;;;;;;;4967485;28;20053;-70
2022/08/29 10:39:32;;;;;;;6.78;2.28;;;;;;;;;;4982088;28;20379;-69
2022/08/29 10:42:02;;;;;;;4.47;1.90;;;;;;;;;;4971467;28;20368;-70
2022/08/29 10:44:35;;;;;;;5.05;1.98;;;;;;;;;;4987948;28;20049;-71
2022/08/29 10:47:03;;;;;;;4.55;1.90;;;;;;;;;;4989134;28;20724;-70
2022/08/29 10:49:47;;;;;;;6.50;1.92;;;;;;;;;;4983686;28;20045;-70
2022/08/29 10:52:12;;;;;;;4.72;1.90;;;;;;;;;;4988655;28;20277;-70
2022/08/29 10:54:50;;;;;;;4.47;2.00;;;;;;;;;;4987259;28;20332;-70
2022/08/29 10:57:24;;;;;;;4.68;2.00;;;;;;;;;;4970085;28;20120;-71
2022/08/29 11:00:11;;;;;;;4.85;2.08;;;;;;;;;;4964007;28;20530;-72
2022/08/29 11:03:02;;;;;;;7.10;1.92;;;;;;;;;;4988191;28;20045;-69
2022/08/29 11:05:30;;;;;;;4.85;2.33;;;;;;;;;;4955472;28;20103;-72
2022/08/29 11:08:02;;;;;;;4.10;1.77;;;;;;;;;;4985349;28;20034;-69
2022/08/29 11:10:38;;;;;;;5.13;1.80;;;;;;;;;;4984490;28;20553;-70
2022/08/29 11:13:08;;;;;;;5.88;1.92;;;;;;;;;;4984895;28;20087;-72
2022/08/29 11:15:38;;;;;;;5.03;2.25;;;;;;;;;;4980463;28;20034;-70
2022/08/29 11:18:07;;;;;;;5.35;2.25;;;;;;;;;;4981100;28;20037;-71
2022/08/29 11:20:37;;;;;;;4.30;2.20;;;;;;;;;;4987004;28;20038;-72
2022/08/29 11:23:28;;;;;;;6.65;2.17;;;;;;;;;;4988331;28;20046;-72
2022/08/29 11:25:55;;;;;;;6.68;2.55;;;;;;;;;;4967173;28;20033;-71
2022/08/29 11:28:27;;;;;;;4.30;2.00;;;;;;;;;;4983713;28;20361;-72
2022/08/29 11:30:59;;;;;;;5.80;2.00;;;;;;;;;;4964316;28;20034;-73
2022/08/29 11:33:31;;;;;;;6.32;2.13;;;;;;;;;;4980909;28;20183;-72
2022/08/29 11:36:05;;;;;;;5.85;1.90;;;;;;;;;;4979357;28;20115;-72
2022/08/29 11:38:43;;;;;;;5.80;2.40;;;;;;;;;;4980291;28;20582;-72
2022/08/29 11:41:17;;;;;;;5.88;2.15;;;;;;;;;;4984538;28;20739;-75
2022/08/29 11:43:44;;;;;;;5.00;2.03;;;;;;;;;;4976234;28;20509;-78
2022/08/29 11:46:12;;;;;;;6.07;2.17;;;;;;;;;;4976906;28;20045;-75
2022/08/29 11:48:37;;;;;;;6.28;2.10;;;;;;;;;;4980637;28;20455;-72
2022/08/29 11:51:22;;;;;;;14.80;2.65;;;;;;;;;;4977408;28;20033;-74
2022/08/29 11:53:49;;;;;;;4.20;1.77;;;;;;;;;;4943822;28;20042;-74
2022/08/29 11:56:27;;;;;;;5.38;2.03;;;;;;;20.62;100.00;101917.66;4989330;28;21193;-69
2022/08/29 11:58:57;;;;;;;4.47;1.90;;;;;;;20.69;100.00;101918.16;4985582;28;20113;-69
2022/08/29 12:01:23;;;;;;;6.35;2.00;;;;;;;20.68;100.00;101921.94;4980821;28;20026;-68
2022/08/29 12:03:48;;;;;;;5.63;1.90;;;;;;;20.82;100.00;101919.38;4981844;28;22302;-71
2022/08/29 12:06:16;;;;;;;4.65;2.00;;;;;;;20.73;100.00;101912.91;4979723;28;20042;-70
2022/08/29 12:08:52;;;;;;;6.03;2.20;;;;;;;20.70;100.00;101914.31;4979618;28;20030;-71
2022/08/29 12:11:18;;;;;;;7.47;1.80;;;;;;;20.58;100.00;101916.59;4979178;28;20042;-70
2022/08/29 12:13:43;;;;;;;6.15;2.00;;;;;;;20.37;100.00;101916.75;4981014;28;20037;-68
2022/08/29 12:16:13;;;;;;;4.68;1.80;;;;;;;20.33;100.00;101921.13;4983711;28;20045;-69
2022/08/29 12:18:47;;;;;;;4.60;1.83;;;;;;;20.20;100.00;101910.88;5009383;28;20040;-71
2022/08/29 12:21:35;;;;;;;5.30;2.35;;;;;;;20.15;100.00;101919.88;4984248;28;20088;-71
2022/08/29 12:24:30;;;;;;;4.20;2.00;;;;;;;20.13;100.00;101915.84;4979717;28;20157;-71
2022/08/29 12:26:57;;;;;;;6.22;2.10;;;;;;;20.20;100.00;101920.94;5011849;28;20474;-69
2022/08/29 12:29:32;;;;;;;6.32;2.25;;;;;;;20.31;100.00;101920.59;4983684;28;20060;-70
2022/08/29 12:32:15;;;;;;;8.88;2.28;;;;;;;20.41;100.00;101912.34;5009574;28;21113;-69
2022/08/29 12:35:26;;;;;;;6.78;1.95;;;;;;;20.62;100.00;101913.03;4977605;28;20034;-69
2022/08/29 12:38:07;;;;;;;6.53;2.17;;;;;;;21.02;100.00;101904.72;4980582;28;20056;-68
2022/08/29 12:40:50;;;;;;;5.65;2.20;;;;;;;20.79;100.00;101907.13;4984044;28;20026;-70
2022/08/29 12:43:33;;;;;;;6.00;2.08;;;;;;;20.86;100.00;101912.25;4980113;28;20045;-71
2022/08/29 12:46:12;;;;;;;5.70;2.13;;;;;;;20.61;100.00;101905.13;5009569;28;20550;-70
2022/08/29 12:48:43;;;;;;;5.95;2.20;;;;;;;20.40;100.00;101899.00;4990488;28;20133;-70
2022/08/29 12:51:39;;;;;;;3.83;1.98;;;;;;;20.49;100.00;101899.22;4985172;28;20030;-70
2022/08/29 12:54:06;;;;;;;6.05;1.90;;;;;;;20.69;100.00;101891.69;5008139;28;20112;-68
2022/08/29 12:56:32;;;;;;;6.95;2.22;;;;;;;21.00;100.00;101897.63;4976157;28;20030;-69
2022/08/29 12:59:00;;;;;;;7.53;2.15;;;;;;;21.16;100.00;101894.72;4983355;28;20034;-68
2022/08/29 13:01:29;;;;;;;5.82;1.95;;;;;;;21.38;100.00;101895.03;5013581;28;20033;-68
2022/08/29 13:03:58;;;;;;;5.95;2.00;;;;;;;21.50;100.00;101892.72;4990043;28;20061;-67
2022/08/29 13:06:24;;;;;;;5.03;2.00;;;;;;;21.51;100.00;101888.88;4975947;28;22303;-67
2022/08/29 13:08:49;;;;;;;5.97;1.95;;;;;;;21.70;100.00;101885.34;4965930;28;20069;-67
2022/08/29 13:11:19;;;;;;;6.50;2.00;;;;;;;22.38;100.00;101882.94;4968772;28;20038;-68
2022/08/29 13:13:45;;;;;;;8.85;2.40;;;;;;;22.99;100.00;101872.84;4970107;28;20042;-68
2022/08/29 13:16:22;;;;;;;6.20;2.00;;;;;;;-145.67;100.00;66521.78;4965633;28;20230;-69
2022/08/29 13:18:48;;;;;;;4.57;1.60;;;;;;;22.99;100.00;101872.84;4968337;28;20038;-70
2022/08/29 13:21:29;;;;;;;4.82;1.55;;;;;;;-145.67;100.00;66521.78;4971176;28;20035;-70
2022/08/29 13:24:05;;;;;;;5.18;2.00;;;;;;;-145.67;100.00;66521.78;4965827;28;20030;-70
2022/08/29 13:26:33;;;;;;;4.45;1.80;;;;;;;-145.67;100.00;66521.78;4966778;28;20031;-69
2022/08/29 13:29:14;;;;;;;6.15;1.98;;;;;;;-145.67;100.00;66521.78;4965694;28;20033;-69
2022/08/29 13:31:41;;;;;;;4.40;2.15;;;;;;;-145.67;100.00;66521.78;4996764;28;20034;-68
2022/08/29 13:34:06;;;;;;;4.10;1.50;;;;;;;-145.67;100.00;66521.78;4968044;28;20039;-68
2022/08/29 13:36:45;;;;;;;3.10;1.25;;;;;;;22.99;100.00;101872.84;4969605;28;20049;-67
2022/08/29 13:39:26;;;;;;;4.28;1.67;;;;;;;-145.67;100.00;66521.78;4966465;28;20041;-69
2022/08/29 13:42:01;;;;;;;4.35;2.08;;;;;;;22.99;100.00;101872.84;5000337;28;20270;-70
2022/08/29 13:44:36;;;;;;;5.50;2.10;;;;;;;21.11;100.00;101860.13;4972473;28;20765;-68
2022/08/29 13:47:15;;;;;;;4.95;2.08;;;;;;;-145.67;100.00;66521.78;4998780;28;20045;-69
2022/08/29 13:49:41;;;;;;;4.93;2.10;;;;;;;-145.67;100.00;66521.78;4963545;28;20037;-68
2022/08/29 13:52:09;;;;;;;6.03;1.70;;;;;;;-145.67;100.00;66521.78;4966478;28;20586;-68
2022/08/29 13:54:35;;;;;;;4.95;1.95;;;;;;;-145.67;100.00;66521.78;4972943;28;20057;-67
2022/08/29 13:57:05;;;;;;;6.05;1.77;;;;;;;-145.67;100.00;66521.78;4932051;28;20132;-68
2022/08/29 13:59:34;;;;;;;3.45;1.80;;;;;;;-145.67;100.00;66521.78;4941429;28;20115;-65
2022/08/29 14:01:59;;;;;;;3.20;2.10;;;;;;;-145.67;100.00;66521.78;4941211;28;20112;-67
2022/08/29 14:04:26;;;;;;;4.95;2.00;;;;;;;-145.67;100.00;66521.78;4934802;28;20152;-66
2022/08/29 14:06:54;;;;;;;3.65;2.00;;;;;;;-145.67;100.00;66521.78;4944832;28;20191;-67
2022/08/29 14:09:49;;;;;;;3.75;1.83;;;;;;;-145.67;100.00;66521.78;4942202;28;20039;-67
2022/08/29 14:12:17;;;;;;;6.00;1.75;;;;;;;-145.67;100.00;66521.78;4926832;28;20610;-67